Time;durP1;ratioP1;P1;durP2;ratioP2;P2;SDS_P1;SDS_P2;PMS_P1;PMS_P2;Temp;Humidity;BMP_temperature;BMP_pressure;BME280_temperature;BME280_humidity;BME280_pressure;Samples;Min_cycle;Max_cycle;Signal;HPM_P1;HPM_P2
2023/06/19 00:00:46;;;;;;;;;;;;;;;;;;2194944;59;2341;-21
2023/06/19 00:03:16;;;;;;;;;;;;;;;;;;2194370;59;1853;-21
2023/06/19 00:05:46;;;;;;;;;;;;;;;;;;2194837;67;1376;-20
2023/06/19 00:08:16;;;;;;;;;;;;;;;;;;2194715;59;1525;-20
2023/06/19 00:10:47;;;;;;;;;;;;;;;;;;2195309;67;1277;-20
2023/06/19 00:13:18;;;;;;;;;;;;;;;;;;2194623;59;1872;-20
2023/06/19 00:15:49;;;;;;;;;;;;;;;;;;2194297;67;1929;-20
2023/06/19 00:18:19;;;;;;;;;;;;;;;;;;2194643;67;1713;-21
2023/06/19 00:20:50;;;;;;;;;;;;;;;;;;2191203;67;2550;-21
2023/06/19 00:23:20;;;;;;;;;;;;;;;;;;2195073;67;1323;-20
2023/06/19 00:25:50;;;;;;;;;;;;;;;;;;2195035;59;1321;-20
2023/06/19 00:28:21;;;;;;;;;;;;;;;;;;2197587;67;1772;-20
2023/06/19 00:30:51;;;;;;;;;;;;;;;;;;2195005;59;1103;-20
2023/06/19 00:33:22;;;;;;;;;;;;;;;;;;2195584;59;1130;-21
2023/06/19 00:35:52;;;;;;;;;;;;;;;;;;2195096;59;1945;-20
2023/06/19 00:38:23;;;;;;;;;;;;;;;;;;2195504;67;1737;-21
2023/06/19 00:40:54;;;;;;;;;;;;;;;;;;2194502;67;1151;-20
2023/06/19 00:43:25;;;;;;;;;;;;;;;;;;2195115;67;1611;-20
2023/06/19 00:45:56;;;;;;;;;;;;;;;;;;2195449;59;1253;-20
2023/06/19 00:48:27;;;;;;;;;;;;;;;;;;2195419;67;2400;-20
2023/06/19 00:50:58;;;;;;;;;;;;;;;;;;2193615;59;2240;-21
2023/06/19 00:53:30;;;;;;;;;;;;;;;;;;2196265;67;1303;-20
2023/06/19 00:56:01;;;;;;;;;;;;;;;;;;2195695;67;1936;-20
2023/06/19 00:58:32;;;;;;;;;;;;;;;;;;2195802;67;1534;-20
2023/06/19 01:01:02;;;;;;;;;;;;;;;;;;2195870;59;2391;-21
2023/06/19 01:03:32;;;;;;;;;;;;;;;;;;2195701;67;1279;-21
2023/06/19 01:06:05;;;;;;;;;;;;;;;;;;2194991;67;1997;-20
2023/06/19 01:08:50;;;;;;;;;;;;;;;;;;2195568;59;1232;-20
2023/06/19 01:11:23;;;;;;;;;;;;;;;;;;2196595;59;2058;-20
2023/06/19 01:14:02;;;;;;;;;;;;;;;;;;2195538;67;1255;-20
2023/06/19 01:16:33;;;;;;;;;;;;;;;;;;2195226;67;1941;-20
2023/06/19 01:19:05;;;;;;;;;;;;;;;;;;2195351;60;2292;-20
2023/06/19 01:21:35;;;;;;;;;;;;;;;;;;2194953;67;2147;-20
2023/06/19 01:24:06;;;;;;;;;;;;;;;;;;2195033;67;1495;-20
2023/06/19 01:26:36;;;;;;;;;;;;;;;;;;2195447;59;2004;-20
2023/06/19 01:29:06;;;;;;;;;;;;;;;;;;2194149;67;1344;-21
2023/06/19 01:31:42;;;;;;;;;;;;;;;;;;2195627;59;1343;-21
2023/06/19 01:34:15;;;;;;;;;;;;;;;;;;2195204;67;1489;-20
2023/06/19 01:36:46;;;;;;;;;;;;;;;;;;2195265;67;1989;-20
2023/06/19 01:39:17;;;;;;;;;;;;;;;;;;2191454;59;1934;-20
2023/06/19 01:41:48;;;;;;;;;;;;;;;;;;2195281;67;1622;-20
2023/06/19 01:44:18;;;;;;;;;;;;;;;;;;2197921;67;1183;-20
2023/06/19 01:46:50;;;;;;;;;;;;;;;;;;2195150;67;1762;-20
2023/06/19 01:49:20;;;;;;;;;;;;;;;;;;2195062;67;1464;-20
2023/06/19 01:51:50;;;;;;;;;;;;;;;;;;2196038;59;1540;-20
2023/06/19 01:54:20;;;;;;;;;;;;;;;;;;2195304;67;2256;-20
2023/06/19 01:56:51;;;;;;;;;;;;;;;;;;2194952;67;2015;-20
2023/06/19 01:59:21;;;;;;;;;;;;;;;;;;2195077;59;2226;-20
2023/06/19 02:01:51;;;;;;;;;;;;;;;;;;2195862;59;1403;-21
2023/06/19 02:04:21;;;;;;;;;;;;;;;;;;2195308;67;1872;-20
2023/06/19 02:06:52;;;;;;;;;;;;;;;;;;2195963;67;1103;-20
2023/06/19 02:09:23;;;;;;;;;;;;;;;;;;2195670;59;1384;-21
2023/06/19 02:11:53;;;;;;;;;;;;;;;;;;2197061;67;1453;-20
2023/06/19 02:14:23;;;;;;;;;;;;;;;;;;2195197;67;1130;-20
2023/06/19 02:16:53;;;;;;;;;;;;;;;;;;2195420;67;1949;-20
2023/06/19 02:19:24;;;;;;;;;;;;;;;;;;2196139;67;1194;-20
2023/06/19 02:21:54;;;;;;;;;;;;;;;;;;2196030;67;1292;-20
2023/06/19 02:24:24;;;;;;;;;;;;;;;;;;2195662;67;1505;-20
2023/06/19 02:26:54;;;;;;;;;;;;;;;;;;2195837;59;2368;-20
2023/06/19 02:29:25;;;;;;;;;;;;;;;;;;2195783;67;1289;-20
2023/06/19 02:31:55;;;;;;;;;;;;;;;;;;2195619;59;1629;-20
2023/06/19 02:34:25;;;;;;;;;;;;;;;;;;2194628;59;2825;-20
2023/06/19 02:36:56;;;;;;;;;;;;;;;;;;2194938;67;1932;-20
2023/06/19 02:39:26;;;;;;;;;;;;;;;;;;2195768;67;1600;-20
2023/06/19 02:41:57;;;;;;;;;;;;;;;;;;2195360;67;1159;-20
2023/06/19 02:44:27;;;;;;;;;;;;;;;;;;2195740;67;1360;-20
2023/06/19 02:46:57;;;;;;;;;;;;;;;;;;2195635;59;2338;-20
2023/06/19 02:49:27;;;;;;;;;;;;;;;;;;2196056;59;1482;-20
2023/06/19 02:51:58;;;;;;;;;;;;;;;;;;2198105;59;1566;-20
2023/06/19 02:54:31;;;;;;;;;;;;;;;;;;2196071;67;1944;-20
2023/06/19 02:57:01;;;;;;;;;;;;;;;;;;2195839;67;1294;-20
2023/06/19 02:59:31;;;;;;;;;;;;;;;;;;2196075;67;2811;-20
2023/06/19 03:02:02;;;;;;;;;;;;;;;;;;2195947;67;1181;-20
2023/06/19 03:04:32;;;;;;;;;;;;;;;;;;2195303;67;1270;-20
2023/06/19 03:07:03;;;;;;;;;;;;;;;;;;2196154;67;1443;-20
2023/06/19 03:09:33;;;;;;;;;;;;;;;;;;2201877;54;2358;-24
2023/06/19 03:12:04;;;;;;;;;;;;;;;;;;2195821;59;1819;-24
2023/06/19 03:14:35;;;;;;;;;;;;;;;;;;2197981;59;2565;-23
2023/06/19 03:17:05;;;;;;;;;;;;;;;;;;2197799;59;2424;-23
2023/06/19 03:19:35;;;;;;;;;;;;;;;;;;2196268;67;1677;-23
2023/06/19 03:22:06;;;;;;;;;;;;;;;;;;2197450;67;1978;-24
2023/06/19 03:24:36;;;;;;;;;;;;;;;;;;2194734;67;1776;-23
2023/06/19 03:27:07;;;;;;;;;;;;;;;;;;2195819;59;2602;-23
2023/06/19 03:29:37;;;;;;;;;;;;;;;;;;2194805;67;2816;-23
2023/06/19 03:32:07;;;;;;;;;;;;;;;;;;2194958;59;1649;-23
2023/06/19 03:34:37;;;;;;;;;;;;;;;;;;2193894;67;1940;-23
2023/06/19 03:37:07;;;;;;;;;;;;;;;;;;2195480;67;2519;-23
2023/06/19 03:39:38;;;;;;;;;;;;;;;;;;2194898;67;1845;-23
2023/06/19 03:42:08;;;;;;;;;;;;;;;;;;2196735;59;1204;-23
2023/06/19 03:44:40;;;;;;;;;;;;;;;;;;2194755;59;1713;-23
2023/06/19 03:47:11;;;;;;;;;;;;;;;;;;2194048;59;1744;-23
2023/06/19 03:49:42;;;;;;;;;;;;;;;;;;2195350;59;1429;-23
2023/06/19 03:52:12;;;;;;;;;;;;;;;;;;2196941;59;1342;-23
2023/06/19 03:54:42;;;;;;;;;;;;;;;;;;2196174;67;1944;-23
2023/06/19 03:57:13;;;;;;;;;;;;;;;;;;2195747;67;1860;-23
2023/06/19 03:59:43;;;;;;;;;;;;;;;;;;2196363;59;2300;-23
2023/06/19 04:02:13;;;;;;;;;;;;;;;;;;2195481;59;1292;-23
2023/06/19 04:04:43;;;;;;;;;;;;;;;;;;2196031;67;1268;-23
2023/06/19 04:07:14;;;;;;;;;;;;;;;;;;2195703;67;2113;-23
2023/06/19 04:09:44;;;;;;;;;;;;;;;;;;2196054;59;1212;-23
2023/06/19 04:12:14;;;;;;;;;;;;;;;;;;2195446;67;1173;-23
2023/06/19 04:14:44;;;;;;;;;;;;;;;;;;2194773;67;1942;-24
2023/06/19 04:17:15;;;;;;;;;;;;;;;;;;2195552;67;1276;-23
2023/06/19 04:19:48;;;;;;;;;;;;;;;;;;2195394;67;1673;-23
2023/06/19 04:22:18;;;;;;;;;;;;;;;;;;2195406;59;1439;-23
2023/06/19 04:24:54;;;;;;;;;;;;;;;;;;2195969;67;1241;-23
2023/06/19 04:27:27;;;;;;;;;;;;;;;;;;2195785;59;1278;-23
2023/06/19 04:29:58;;;;;;;;;;;;;;;;;;2194133;59;1646;-23
2023/06/19 04:32:28;;;;;;;;;;;;;;;;;;2195566;67;1792;-23
2023/06/19 04:34:58;;;;;;;;;;;;;;;;;;2194767;67;1976;-24
2023/06/19 04:37:29;;;;;;;;;;;;;;;;;;2195619;67;1887;-24
2023/06/19 04:39:59;;;;;;;;;;;;;;;;;;2195083;67;1849;-24
2023/06/19 04:42:29;;;;;;;;;;;;;;;;;;2195471;67;1233;-24
2023/06/19 04:44:59;;;;;;;;;;;;;;;;;;2195198;59;1378;-24
2023/06/19 04:47:30;;;;;;;;;;;;;;;;;;2195755;59;1727;-24
2023/06/19 04:50:00;;;;;;;;;;;;;;;;;;2194580;59;1947;-24
2023/06/19 04:52:32;;;;;;;;;;;;;;;;;;2197236;59;1272;-24
2023/06/19 04:55:10;;;;;;;;;;;;;;;;;;2195534;67;1937;-24
2023/06/19 04:57:40;;;;;;;;;;;;;;;;;;2195729;59;2120;-24
2023/06/19 05:00:10;;;;;;;;;;;;;;;;;;2196808;59;2289;-24
2023/06/19 05:02:43;;;;;;;;;;;;;;;;;;2195858;59;1180;-24
2023/06/19 05:05:13;;;;;;;;;;;;;;;;;;2195417;67;1796;-24
2023/06/19 05:07:45;;;;;;;;;;;;;;;;;;2196027;67;1126;-24
2023/06/19 05:10:15;;;;;;;;;;;;;;;;;;2195229;59;1692;-24
2023/06/19 05:12:45;;;;;;;;;;;;;;;;;;2196323;67;1514;-24
2023/06/19 05:15:15;;;;;;;;;;;;;;;;;;2196476;67;1985;-24
2023/06/19 05:17:46;;;;;;;;;;;;;;;;;;2195919;67;1894;-24
2023/06/19 05:20:19;;;;;;;;;;;;;;;;;;2195711;67;1267;-24
2023/06/19 05:22:49;;;;;;;;;;;;;;;;;;2196052;67;1726;-24
2023/06/19 05:25:19;;;;;;;;;;;;;;;;;;2195308;67;1310;-24
2023/06/19 05:27:49;;;;;;;;;;;;;;;;;;2194749;59;1637;-24
2023/06/19 05:30:19;;;;;;;;;;;;;;;;;;2195688;59;1673;-24
2023/06/19 05:32:50;;;;;;;;;;;;;;;;;;2194985;67;2311;-24
2023/06/19 05:35:20;;;;;;;;;;;;;;;;;;2195398;67;1934;-24
2023/06/19 05:37:50;;;;;;;;;;;;;;;;;;2197039;67;1570;-24
2023/06/19 05:40:20;;;;;;;;;;;;;;;;;;2195020;67;1435;-24
2023/06/19 05:42:51;;;;;;;;;;;;;;;;;;2195782;67;1165;-24
2023/06/19 05:45:21;;;;;;;;;;;;;;;;;;2195181;67;1712;-24
2023/06/19 05:47:51;;;;;;;;;;;;;;;;;;2198178;59;1783;-24
2023/06/19 05:50:21;;;;;;;;;;;;;;;;;;2195287;59;1259;-24
2023/06/19 05:52:52;;;;;;;;;;;;;;;;;;2196343;59;1622;-24
2023/06/19 05:55:24;;;;;;;;;;;;;;;;;;2195651;67;1916;-24
2023/06/19 05:57:55;;;;;;;;;;;;;;;;;;2194999;67;2163;-24
2023/06/19 06:00:25;;;;;;;;;;;;;;;;;;2195232;59;2570;-24
2023/06/19 06:03:02;;;;;;;;;;;;;;;;;;2195733;59;1314;-24
2023/06/19 06:05:32;;;;;;;;;;;;;;;;;;2195237;67;1437;-24
2023/06/19 06:08:02;;;;;;;;;;;;;;;;;;2195595;67;1644;-24
2023/06/19 06:10:33;;;;;;;;;;;;;;;;;;2195467;59;1507;-24
2023/06/19 06:13:06;;;;;;;;;;;;;;;;;;2195377;67;1169;-24
2023/06/19 06:15:36;;;;;;;;;;;;;;;;;;2195457;67;1999;-24
2023/06/19 06:18:06;;;;;;;;;;;;;;;;;;2195467;67;1178;-24
2023/06/19 06:20:36;;;;;;;;;;;;;;;;;;2194248;67;1267;-24
2023/06/19 06:23:06;;;;;;;;;;;;;;;;;;2195374;67;2025;-24
2023/06/19 06:25:37;;;;;;;;;;;;;;;;;;2195378;67;1637;-24
2023/06/19 06:28:07;;;;;;;;;;;;;;;;;;2195551;59;1518;-24
2023/06/19 06:30:38;;;;;;;;;;;;;;;;;;2196348;59;1649;-24
2023/06/19 06:33:09;;;;;;;;;;;;;;;;;;2196919;67;1293;-24
2023/06/19 06:35:39;;;;;;;;;;;;;;;;;;2196547;67;1994;-24
2023/06/19 06:38:09;;;;;;;;;;;;;;;;;;2195860;67;1260;-25
2023/06/19 06:40:41;;;;;;;;;;;;;;;;;;2195254;67;1210;-25
2023/06/19 06:43:11;;;;;;;;;;;;;;;;;;2195384;67;1314;-24
2023/06/19 06:45:42;;;;;;;;;;;;;;;;;;2194472;59;2345;-25
2023/06/19 06:48:12;;;;;;;;;;;;;;;;;;2194109;59;2694;-25
2023/06/19 06:50:45;;;;;;;;;;;;;;;;;;2193592;59;2455;-25
2023/06/19 06:53:15;;;;;;;;;;;;;;;;;;2196160;67;1547;-25
2023/06/19 06:55:45;;;;;;;;;;;;;;;;;;2195103;59;2205;-25
2023/06/19 06:58:17;;;;;;;;;;;;;;;;;;2195283;59;2156;-25
2023/06/19 07:00:47;;;;;;;;;;;;;;;;;;2195411;59;2448;-25
2023/06/19 07:03:18;;;;;;;;;;;;;;;;;;2195394;60;1408;-24
2023/06/19 07:05:48;;;;;;;;;;;;;;;;;;2191825;67;1116;-24
2023/06/19 07:08:18;;;;;;;;;;;;;;;;;;2195015;67;1700;-25
2023/06/19 07:10:48;;;;;;;;;;;;;;;;;;2196276;59;1808;-25
2023/06/19 07:13:19;;;;;;;;;;;;;;;;;;2194374;67;1661;-24
2023/06/19 07:15:49;;;;;;;;;;;;;;;;;;2195192;67;1925;-24
2023/06/19 07:18:19;;;;;;;;;;;;;;;;;;2194883;67;1233;-24
2023/06/19 07:20:49;;;;;;;;;;;;;;;;;;2194547;59;2985;-24
2023/06/19 07:23:20;;;;;;;;;;;;;;;;;;2194912;67;1332;-24
2023/06/19 07:25:50;;;;;;;;;;;;;;;;;;2193952;59;2440;-25
2023/06/19 07:28:20;;;;;;;;;;;;;;;;;;2194971;59;1894;-24
2023/06/19 07:30:52;;;;;;;;;;;;;;;;;;2196170;59;1243;-25
2023/06/19 07:33:22;;;;;;;;;;;;;;;;;;2194535;67;1617;-25
2023/06/19 07:35:52;;;;;;;;;;;;;;;;;;2195263;59;1936;-25
2023/06/19 07:38:22;;;;;;;;;;;;;;;;;;2195346;67;1213;-25
2023/06/19 07:40:53;;;;;;;;;;;;;;;;;;2196256;67;1124;-25
2023/06/19 07:43:23;;;;;;;;;;;;;;;;;;2194681;59;1968;-25
2023/06/19 07:45:53;;;;;;;;;;;;;;;;;;2195075;59;1947;-25
2023/06/19 07:48:24;;;;;;;;;;;;;;;;;;2196622;59;1580;-25
2023/06/19 07:50:54;;;;;;;;;;;;;;;;;;2196762;59;1573;-25
2023/06/19 07:53:24;;;;;;;;;;;;;;;;;;2195415;67;2749;-25
2023/06/19 07:55:55;;;;;;;;;;;;;;;;;;2197794;59;2706;-25
2023/06/19 07:58:25;;;;;;;;;;;;;;;;;;2197114;59;2009;-25
2023/06/19 08:00:57;;;;;;;;;;;;;;;;;;2196687;59;2388;-24
2023/06/19 08:03:27;;;;;;;;;;;;;;;;;;2196665;67;1317;-24
2023/06/19 08:05:57;;;;;;;;;;;;;;;;;;2197589;67;1329;-24
2023/06/19 08:08:27;;;;;;;;;;;;;;;;;;2196599;59;1230;-25
2023/06/19 08:10:58;;;;;;;;;;;;;;;;;;2194676;67;1874;-25
2023/06/19 08:13:28;;;;;;;;;;;;;;;;;;2196322;67;1429;-24
2023/06/19 08:15:58;;;;;;;;;;;;;;;;;;2196492;67;1934;-24
2023/06/19 08:18:28;;;;;;;;;;;;;;;;;;2197322;67;1344;-24
2023/06/19 08:20:59;;;;;;;;;;;;;;;;;;2196166;67;1130;-24
2023/06/19 08:23:29;;;;;;;;;;;;;;;;;;2196429;67;1147;-24
2023/06/19 08:25:59;;;;;;;;;;;;;;;;;;2196105;59;2231;-24
2023/06/19 08:28:31;;;;;;;;;;;;;;;;;;2194008;59;2251;-24
2023/06/19 08:31:01;;;;;;;;;;;;;;;;;;2196079;59;1941;-22
2023/06/19 08:33:37;;;;;;;;;;;;;;;;;;2196794;67;1289;-22
2023/06/19 08:36:07;;;;;;;;;;;;;;;;;;2196666;59;1992;-22
2023/06/19 08:38:38;;;;;;;;;;;;;;;;;;2195141;67;1354;-22
2023/06/19 08:41:08;;;;;;;;;;;;;;;;;;2196075;67;1184;-22
2023/06/19 08:43:38;;;;;;;;;;;;;;;;;;2197088;59;1185;-22
2023/06/19 08:46:17;;;;;;;;;;;;;;;;;;2195171;59;2547;-22
2023/06/19 08:48:47;;;;;;;;;;;;;;;;;;2195035;59;2273;-32
2023/06/19 08:51:18;;;;;;;;;;;;;;;;;;2195278;59;1668;-22
2023/06/19 08:53:52;;;;;;;;;;;;;;;;;;2195316;59;1660;-23
2023/06/19 08:56:23;;;;;;;;;;;;;;;;;;2193698;67;2541;-23
2023/06/19 08:58:53;;;;;;;;;;;;;;;;;;2195146;59;2159;-23
2023/06/19 09:01:26;;;;;;;;;;;;;;;;;;2194623;59;2419;-23
2023/06/19 09:03:56;;;;;;;;;;;;;;;;;;2195654;67;1751;-23
2023/06/19 09:06:26;;;;;;;;;;;;;;;;;;2195667;67;1773;-23
2023/06/19 09:08:57;;;;;;;;;;;;;;;;;;2199780;54;2597;-19
2023/06/19 09:11:28;;;;;;;;;;;;;;;;;;2190269;67;2002;-19
2023/06/19 09:13:58;;;;;;;;;;;;;;;;;;2190715;59;1721;-19
2023/06/19 09:16:38;;;;;;;;;;;;;;;;;;2194203;67;1928;-19
2023/06/19 09:19:08;;;;;;;;;;;;;;;;;;2194778;67;2238;-19
2023/06/19 09:21:39;;;;;;;;;;;;;;;;;;2195212;67;1236;-19
2023/06/19 09:24:09;;;;;;;;;;;;;;;;;;2194604;67;1711;-19
2023/06/19 09:26:39;;;;;;;;;;;;;;;;;;2194685;59;1237;-20
2023/06/19 09:29:13;;;;;;;;;;;;;;;;;;2194835;67;1232;-20
2023/06/19 09:31:44;;;;;;;;;;;;;;;;;;2195143;59;2150;-20
2023/06/19 09:34:14;;;;;;;;;;;;;;;;;;2194368;59;1648;-20
2023/06/19 09:36:45;;;;;;;;;;;;;;;;;;2195396;67;1938;-20
2023/06/19 09:39:16;;;;;;;;;;;;;;;;;;2194793;59;2193;-20
2023/06/19 09:41:50;;;;;;;;;;;;;;;;;;2195419;67;1335;-20
2023/06/19 09:44:23;;;;;;;;;;;;;;;;;;2194921;67;2565;-20
2023/06/19 09:46:55;;;;;;;;;;;;;;;;;;2193835;59;2425;-20
2023/06/19 09:49:28;;;;;;;;;;;;;;;;;;2189226;59;2390;-20
2023/06/19 09:51:58;;;;;;;;;;;;;;;;;;2191287;59;1415;-20
2023/06/19 09:54:28;;;;;;;;;;;;;;;;;;2193937;59;2646;-20
2023/06/19 09:57:00;;;;;;;;;;;;;;;;;;2194684;67;2008;-20
2023/06/19 09:59:31;;;;;;;;;;;;;;;;;;2194231;59;2266;-20
2023/06/19 10:02:05;;;;;;;;;;;;;;;;;;2194439;59;2304;-20
2023/06/19 10:05:01;;;;;;;;;;;;;;;;;;2194500;67;1152;-20
2023/06/19 10:07:35;;;;;;;;;;;;;;;;;;2193666;59;2101;-20
2023/06/19 10:10:10;;;;;;;;;;;;;;;;;;2189985;59;2328;-20
2023/06/19 10:12:44;;;;;;;;;;;;;;;;;;2194501;59;2083;-20
2023/06/19 10:15:18;;;;;;;;;;;;;;;;;;2191043;59;2142;-20
2023/06/19 10:17:53;;;;;;;;;;;;;;;;;;2191274;67;1500;-20
2023/06/19 10:20:25;;;;;;;;;;;;;;;;;;2195225;67;1232;-20
2023/06/19 10:23:00;;;;;;;;;;;;;;;;;;2191363;67;1617;-20
2023/06/19 10:25:31;;;;;;;;;;;;;;;;;;2195147;67;1233;-20
2023/06/19 10:28:05;;;;;;;;;;;;;;;;;;2195361;59;1104;-20
2023/06/19 10:30:35;;;;;;;;;;;;;;;;;;2190458;59;1317;-19
2023/06/19 10:33:06;;;;;;;;;;;;;;;;;;2192756;59;2150;-19
2023/06/19 10:35:40;;;;;;;;;;;;;;;;;;2193555;59;1934;-19
2023/06/19 10:38:10;;;;;;;;;;;;;;;;;;2191253;67;1746;-19
2023/06/19 10:40:41;;;;;;;;;;;;;;;;;;2193861;59;2489;-20
2023/06/19 10:43:11;;;;;;;;;;;;;;;;;;2190788;59;2347;-20
2023/06/19 10:45:42;;;;;;;;;;;;;;;;;;2193420;59;1786;-20
2023/06/19 10:48:18;;;;;;;;;;;;;;;;;;2193935;59;1638;-20
2023/06/19 10:50:48;;;;;;;;;;;;;;;;;;2195214;59;1350;-20
2023/06/19 10:53:30;;;;;;;;;;;;;;;;;;2194669;67;1685;-20
2023/06/19 10:56:01;;;;;;;;;;;;;;;;;;2190841;60;1971;-20
2023/06/19 10:58:32;;;;;;;;;;;;;;;;;;2194946;59;2056;-20
2023/06/19 11:01:02;;;;;;;;;;;;;;;;;;2194163;59;2536;-20
2023/06/19 11:03:34;;;;;;;;;;;;;;;;;;2195245;59;2006;-20
2023/06/19 11:06:04;;;;;;;;;;;;;;;;;;2192245;59;1314;-20
2023/06/19 11:08:34;;;;;;;;;;;;;;;;;;2195977;67;1506;-20
2023/06/19 11:11:05;;;;;;;;;;;;;;;;;;2195957;59;1398;-20
2023/06/19 11:13:35;;;;;;;;;;;;;;;;;;2195776;59;1160;-20
2023/06/19 11:16:05;;;;;;;;;;;;;;;;;;2195255;59;2101;-20
2023/06/19 11:18:36;;;;;;;;;;;;;;;;;;2192252;59;3063;-20
2023/06/19 11:21:06;;;;;;;;;;;;;;;;;;2190951;59;2728;-20
2023/06/19 11:23:36;;;;;;;;;;;;;;;;;;2192274;59;1719;-20
2023/06/19 11:26:07;;;;;;;;;;;;;;;;;;2195298;59;1622;-20
2023/06/19 11:28:37;;;;;;;;;;;;;;;;;;2195538;67;1426;-20
2023/06/19 11:31:09;;;;;;;;;;;;;;;;;;2196026;59;1873;-20
2023/06/19 11:33:39;;;;;;;;;;;;;;;;;;2192067;59;1255;-20
2023/06/19 11:36:09;;;;;;;;;;;;;;;;;;2195581;60;1932;-20
2023/06/19 11:38:40;;;;;;;;;;;;;;;;;;2191025;67;1952;-20
2023/06/19 11:41:11;;;;;;;;;;;;;;;;;;2194622;59;1691;-20
2023/06/19 11:43:41;;;;;;;;;;;;;;;;;;2194969;67;1130;-21
2023/06/19 11:46:11;;;;;;;;;;;;;;;;;;2194549;59;1736;-20
2023/06/19 11:48:41;;;;;;;;;;;;;;;;;;2194251;59;1816;-20
2023/06/19 11:51:12;;;;;;;;;;;;;;;;;;2191365;59;1783;-20
2023/06/19 11:53:42;;;;;;;;;;;;;;;;;;2195251;67;1256;-20
2023/06/19 11:56:12;;;;;;;;;;;;;;;;;;2191622;67;1934;-19
2023/06/19 11:58:44;;;;;;;;;;;;;;;;;;2195241;59;2088;-22
2023/06/19 12:01:15;;;;;;;;;;;;;;;;;;2195033;59;2525;-22
2023/06/19 12:03:45;;;;;;;;;;;;;;;;;;2191266;59;2215;-20
2023/06/19 12:06:17;;;;;;;;;;;;;;;;;;2193313;67;2109;-20
2023/06/19 12:08:47;;;;;;;;;;;;;;;;;;2193544;59;2409;-19
2023/06/19 12:11:17;;;;;;;;;;;;;;;;;;2193362;59;3028;-20
2023/06/19 12:13:53;;;;;;;;;;;;;;;;;;2189224;67;1674;-20
2023/06/19 12:16:23;;;;;;;;;;;;;;;;;;2194083;67;1932;-19
2023/06/19 12:18:53;;;;;;;;;;;;;;;;;;2194046;67;2768;-19
2023/06/19 12:21:23;;;;;;;;;;;;;;;;;;2194052;67;2488;-19
2023/06/19 12:23:54;;;;;;;;;;;;;;;;;;2196068;67;1354;-19
2023/06/19 12:26:25;;;;;;;;;;;;;;;;;;2195586;59;1265;-19
2023/06/19 12:28:55;;;;;;;;;;;;;;;;;;2191904;60;1504;-22
2023/06/19 12:31:25;;;;;;;;;;;;;;;;;;2195731;59;1411;-22
2023/06/19 12:33:55;;;;;;;;;;;;;;;;;;2195661;67;1136;-22
2023/06/19 12:36:26;;;;;;;;;;;;;;;;;;2195621;59;1944;-22
2023/06/19 12:38:56;;;;;;;;;;;;;;;;;;2192227;59;2113;-21
2023/06/19 12:41:26;;;;;;;;;;;;;;;;;;2193409;67;1152;-21
2023/06/19 12:43:56;;;;;;;;;;;;;;;;;;2197161;67;1392;-22
2023/06/19 12:46:26;;;;;;;;;;;;;;;;;;2196744;59;1700;-22
2023/06/19 12:49:00;;;;;;;;;;;;;;;;;;2192753;67;1329;-22
2023/06/19 12:51:30;;;;;;;;;;;;;;;;;;2196586;59;2010;-22
2023/06/19 12:54:00;;;;;;;;;;;;;;;;;;2197090;67;1133;-22
2023/06/19 12:56:31;;;;;;;;;;;;;;;;;;2196654;59;2293;-22
2023/06/19 12:59:01;;;;;;;;;;;;;;;;;;2197512;59;2371;-22
2023/06/19 13:01:31;;;;;;;;;;;;;;;;;;2197126;59;2236;-22
2023/06/19 13:04:01;;;;;;;;;;;;;;;;;;2197164;67;1270;-19
2023/06/19 13:06:32;;;;;;;;;;;;;;;;;;2193716;59;1375;-19
2023/06/19 13:09:02;;;;;;;;;;;;;;;;;;2196941;67;1289;-19
2023/06/19 13:11:34;;;;;;;;;;;;;;;;;;2192178;59;2090;-19
2023/06/19 13:14:04;;;;;;;;;;;;;;;;;;2194950;59;2165;-19
2023/06/19 13:16:34;;;;;;;;;;;;;;;;;;2191019;59;2164;-19
2023/06/19 13:19:05;;;;;;;;;;;;;;;;;;2192365;59;1893;-19
2023/06/19 13:21:35;;;;;;;;;;;;;;;;;;2194727;59;2312;-19
2023/06/19 13:24:06;;;;;;;;;;;;;;;;;;2193043;67;1752;-20
2023/06/19 13:26:36;;;;;;;;;;;;;;;;;;2194953;59;2408;-20
2023/06/19 13:29:06;;;;;;;;;;;;;;;;;;2195514;59;1503;-20
2023/06/19 13:31:37;;;;;;;;;;;;;;;;;;2191469;59;2282;-19
2023/06/19 13:34:07;;;;;;;;;;;;;;;;;;2195271;59;2214;-19
2023/06/19 13:36:38;;;;;;;;;;;;;;;;;;2191950;67;2184;-19
2023/06/19 13:39:08;;;;;;;;;;;;;;;;;;2195240;59;1514;-19
2023/06/19 13:41:41;;;;;;;;;;;;;;;;;;2195021;67;2082;-19
2023/06/19 13:44:12;;;;;;;;;;;;;;;;;;2195253;67;1899;-19
2023/06/19 13:46:42;;;;;;;;;;;;;;;;;;2195845;59;2611;-20
2023/06/19 13:49:13;;;;;;;;;;;;;;;;;;2195364;59;1805;-19
2023/06/19 13:51:44;;;;;;;;;;;;;;;;;;2192538;59;1792;-19
2023/06/19 13:54:14;;;;;;;;;;;;;;;;;;2192138;59;1854;-20
2023/06/19 13:56:44;;;;;;;;;;;;;;;;;;2195702;67;1942;-19
2023/06/19 13:59:14;;;;;;;;;;;;;;;;;;2195440;59;2292;-19
2023/06/19 14:01:45;;;;;;;;;;;;;;;;;;2195418;59;2934;-19
2023/06/19 14:04:15;;;;;;;;;;;;;;;;;;2195259;59;1741;-19
2023/06/19 14:06:48;;;;;;;;;;;;;;;;;;2192344;67;2162;-19
2023/06/19 14:09:18;;;;;;;;;;;;;;;;;;2191661;59;1891;-19
2023/06/19 14:11:49;;;;;;;;;;;;;;;;;;2195880;67;1235;-19
2023/06/19 14:14:19;;;;;;;;;;;;;;;;;;2195714;67;2127;-19
2023/06/19 14:16:49;;;;;;;;;;;;;;;;;;2195328;60;1938;-19
2023/06/19 14:19:19;;;;;;;;;;;;;;;;;;2194892;67;1760;-19
2023/06/19 14:21:50;;;;;;;;;;;;;;;;;;2194377;59;2246;-19
2023/06/19 14:24:21;;;;;;;;;;;;;;;;;;2194659;67;2300;-19
2023/06/19 14:26:51;;;;;;;;;;;;;;;;;;2191367;59;2436;-19
2023/06/19 14:29:21;;;;;;;;;;;;;;;;;;2194459;60;2202;-19
2023/06/19 14:31:52;;;;;;;;;;;;;;;;;;2195288;59;1742;-19
2023/06/19 14:34:22;;;;;;;;;;;;;;;;;;2195065;67;1149;-19
2023/06/19 14:36:52;;;;;;;;;;;;;;;;;;2195364;67;2020;-19
2023/06/19 14:39:23;;;;;;;;;;;;;;;;;;2189357;67;1606;-19
2023/06/19 14:41:53;;;;;;;;;;;;;;;;;;2195198;67;1263;-19
2023/06/19 14:44:23;;;;;;;;;;;;;;;;;;2195274;67;1236;-20
2023/06/19 14:46:53;;;;;;;;;;;;;;;;;;2195642;59;1627;-19
2023/06/19 14:49:24;;;;;;;;;;;;;;;;;;2195793;59;1961;-19
2023/06/19 14:51:56;;;;;;;;;;;;;;;;;;2195541;59;1615;-19
2023/06/19 14:54:29;;;;;;;;;;;;;;;;;;2195571;67;1430;-19
2023/06/19 14:57:00;;;;;;;;;;;;;;;;;;2191566;67;1940;-19
2023/06/19 14:59:30;;;;;;;;;;;;;;;;;;2195076;59;2250;-21
2023/06/19 15:02:02;;;;;;;;;;;;;;;;;;2191352;59;1742;-21
2023/06/19 15:04:33;;;;;;;;;;;;;;;;;;2191051;59;2188;-21
2023/06/19 15:07:03;;;;;;;;;;;;;;;;;;2191294;59;1924;-21
2023/06/19 15:09:33;;;;;;;;;;;;;;;;;;2191189;54;2088;-72
2023/06/19 15:12:04;;;;;;;;;;;;;;;;;;2195319;67;1586;-71
2023/06/19 15:14:37;;;;;;;;;;;;;;;;;;2194800;59;1304;-72
2023/06/19 15:17:08;;;;;;;;;;;;;;;;;;2195101;67;2537;-71
2023/06/19 15:19:38;;;;;;;;;;;;;;;;;;2195436;59;1432;-72
2023/06/19 15:22:08;;;;;;;;;;;;;;;;;;2195304;59;1971;-72
2023/06/19 15:24:38;;;;;;;;;;;;;;;;;;2194998;67;1275;-72
2023/06/19 15:27:08;;;;;;;;;;;;;;;;;;2195631;59;2501;-71
2023/06/19 15:29:39;;;;;;;;;;;;;;;;;;2191911;67;1432;-71
2023/06/19 15:32:09;;;;;;;;;;;;;;;;;;2195111;59;1731;-71
2023/06/19 15:34:40;;;;;;;;;;;;;;;;;;2195246;67;1477;-72
2023/06/19 15:37:11;;;;;;;;;;;;;;;;;;2194838;59;1929;-72
2023/06/19 15:39:41;;;;;;;;;;;;;;;;;;2195143;59;1666;-72
2023/06/19 15:42:12;;;;;;;;;;;;;;;;;;2195216;67;1613;-71
2023/06/19 15:44:42;;;;;;;;;;;;;;;;;;2195191;67;1421;-72
2023/06/19 15:47:12;;;;;;;;;;;;;;;;;;2195405;59;1693;-72
2023/06/19 15:49:42;;;;;;;;;;;;;;;;;;2195620;59;1312;-71
2023/06/19 15:52:13;;;;;;;;;;;;;;;;;;2195235;59;1319;-71
2023/06/19 15:54:43;;;;;;;;;;;;;;;;;;2196162;67;1692;-72
2023/06/19 15:57:13;;;;;;;;;;;;;;;;;;2194762;59;2237;-70
2023/06/19 15:59:47;;;;;;;;;;;;;;;;;;2192891;59;2323;-71
2023/06/19 16:02:18;;;;;;;;;;;;;;;;;;2195547;59;1678;-71
2023/06/19 16:04:49;;;;;;;;;;;;;;;;;;2195398;67;1682;-70
2023/06/19 16:07:19;;;;;;;;;;;;;;;;;;2195683;59;2216;-71
2023/06/19 16:09:49;;;;;;;;;;;;;;;;;;2196065;59;1244;-71
2023/06/19 16:12:19;;;;;;;;;;;;;;;;;;2195855;67;1822;-71
2023/06/19 16:14:50;;;;;;;;;;;;;;;;;;2195885;67;1386;-71
2023/06/19 16:17:22;;;;;;;;;;;;;;;;;;2195032;67;1932;-71
2023/06/19 16:19:53;;;;;;;;;;;;;;;;;;2195881;60;1500;-71
2023/06/19 16:22:23;;;;;;;;;;;;;;;;;;2196139;59;2380;-71
2023/06/19 16:24:53;;;;;;;;;;;;;;;;;;2196182;59;2328;-71
2023/06/19 16:27:23;;;;;;;;;;;;;;;;;;2195408;59;2062;-71
2023/06/19 16:29:53;;;;;;;;;;;;;;;;;;2192980;67;1767;-71
2023/06/19 16:32:24;;;;;;;;;;;;;;;;;;2196005;59;1955;-71
2023/06/19 16:34:54;;;;;;;;;;;;;;;;;;2196077;59;2176;-71
2023/06/19 16:37:24;;;;;;;;;;;;;;;;;;2192379;59;2004;-71
2023/06/19 16:39:55;;;;;;;;;;;;;;;;;;2193224;59;2045;-71
2023/06/19 16:42:25;;;;;;;;;;;;;;;;;;2196314;67;2364;-71
2023/06/19 16:44:55;;;;;;;;;;;;;;;;;;2195859;67;1744;-71
2023/06/19 16:47:26;;;;;;;;;;;;;;;;;;2194856;67;1405;-71
2023/06/19 16:49:57;;;;;;;;;;;;;;;;;;2196049;59;1665;-71
2023/06/19 16:52:27;;;;;;;;;;;;;;;;;;2196539;59;1618;-71
2023/06/19 16:54:57;;;;;;;;;;;;;;;;;;2195911;67;1990;-71
2023/06/19 16:57:32;;;;;;;;;;;;;;;;;;2195860;59;2064;-71
2023/06/19 17:00:04;;;;;;;;;;;;;;;;;;2195938;67;1425;-71
2023/06/19 17:02:34;;;;;;;;;;;;;;;;;;2195980;59;1633;-71
2023/06/19 17:05:04;;;;;;;;;;;;;;;;;;2196079;59;1924;-71
2023/06/19 17:07:35;;;;;;;;;;;;;;;;;;2195950;67;1582;-71
2023/06/19 17:10:06;;;;;;;;;;;;;;;;;;2195483;59;1693;-71
2023/06/19 17:12:36;;;;;;;;;;;;;;;;;;2195581;59;1778;-71
2023/06/19 17:15:06;;;;;;;;;;;;;;;;;;2193076;67;2490;-71
2023/06/19 17:17:37;;;;;;;;;;;;;;;;;;2195293;59;1698;-71
2023/06/19 17:20:08;;;;;;;;;;;;;;;;;;2196070;67;1438;-72
2023/06/19 17:22:39;;;;;;;;;;;;;;;;;;2193064;67;1252;-71
2023/06/19 17:25:09;;;;;;;;;;;;;;;;;;2194079;59;2311;-71
2023/06/19 17:27:40;;;;;;;;;;;;;;;;;;2195715;59;1710;-71